Archival Weather

Tokyo Intl

Tokyo Intl, Japan (RJTT)

Report from: Friday, June 24, 2022 12:30 PM JST
Current time: Tuesday, August 16, 2022 3:21 PM JST

Current weather
Weather history
Weather forecast

Temperature30.0°C (86.0°F)
Heat index34.2°C (93.6°F)
Dew point23.0°C (73.4°F)
Winds 21 kts (10.8 m/s, 24.2 mph) South-Southwest (200°)
Wind gusts 38 kts (19.5 m/s, 43.7 mph)
Visibility6.2 mi. (10 km)
Clouds Ceiling: Broken clouds 0 ft. (0 m)
Few clouds 2,500 ft. (762 m)
Altimeter29.65 in.Hg (1004 mB)
Relative humidity66 %
Density altitude2,408 ft. (734 m)
Remarks No significant changes expected in the next two hours
Flight conditions Low Instrument Meteorological Conditions
Raw dataRJTT 240330Z 20021G38KT 9999 FEW025 BKN/// 30/23 Q1004 NOSIG RMK 1CU025 A2966
An error has occurred. This application may no longer respond until reloaded. Reload 🗙